Iruya, Argentina
Current Conditions -  °F | °C
As of 1:00 PM on Monday 24 Nov 2014 (Local Time) from SLTJ Reporting Station
Clear Clear  
Wind Chill: 81°   Ceiling: Unl
Heat Index: 81°   Visibility: 6mi
Dew Point: 61°   Wind: 0mph
Humidity: 51%   Direction: NA
Pressure: 29.85"   Gusts: NA
Location:  22.84°S, 65.23°W
Report Text: SLTJ 241600Z 00000KT 9999 NSC 27/16 Q1011
Loading
Personal Weather Stations






























Interactive Weather Map New forecast layout! Learn more

10-Day Weather Forecast

Advertisements
Track Severe Weather on mobile